sensor_id;sensor_type;location;lat;lon;timestamp;P1;durP1;ratioP1;P2;durP2;ratioP2
66145;SDS011;52948;60.040;30.320;2024-03-17T00:01:55;11.98;;;5.80;;
66145;SDS011;52948;60.040;30.320;2024-03-17T00:06:58;7.47;;;5.57;;
66145;SDS011;52948;60.040;30.320;2024-03-17T00:12:02;7.57;;;5.65;;
66145;SDS011;52948;60.040;30.320;2024-03-17T00:17:04;8.20;;;5.53;;
66145;SDS011;52948;60.040;30.320;2024-03-17T00:22:06;9.35;;;5.38;;
66145;SDS011;52948;60.040;30.320;2024-03-17T00:27:10;6.20;;;4.90;;
66145;SDS011;52948;60.040;30.320;2024-03-17T00:32:13;9.10;;;5.68;;
66145;SDS011;52948;60.040;30.320;2024-03-17T00:37:17;8.88;;;5.43;;
66145;SDS011;52948;60.040;30.320;2024-03-17T00:42:20;9.20;;;5.40;;
66145;SDS011;52948;60.040;30.320;2024-03-17T00:47:23;8.18;;;5.50;;
66145;SDS011;52948;60.040;30.320;2024-03-17T00:52:25;7.80;;;4.90;;
66145;SDS011;52948;60.040;30.320;2024-03-17T00:57:29;8.63;;;5.32;;
66145;SDS011;52948;60.040;30.320;2024-03-17T01:02:32;10.65;;;5.95;;
66145;SDS011;52948;60.040;30.320;2024-03-17T01:07:35;11.90;;;6.38;;
66145;SDS011;52948;60.040;30.320;2024-03-17T01:12:38;12.13;;;6.70;;
66145;SDS011;52948;60.040;30.320;2024-03-17T01:17:40;8.68;;;6.03;;
66145;SDS011;52948;60.040;30.320;2024-03-17T01:22:43;9.93;;;6.22;;
66145;SDS011;52948;60.040;30.320;2024-03-17T01:27:46;7.40;;;5.90;;
66145;SDS011;52948;60.040;30.320;2024-03-17T01:32:48;9.80;;;6.18;;
66145;SDS011;52948;60.040;30.320;2024-03-17T01:37:52;10.13;;;6.00;;
66145;SDS011;52948;60.040;30.320;2024-03-17T01:42:55;11.25;;;6.43;;
66145;SDS011;52948;60.040;30.320;2024-03-17T01:47:58;11.55;;;6.07;;
66145;SDS011;52948;60.040;30.320;2024-03-17T01:53:03;10.68;;;5.82;;
66145;SDS011;52948;60.040;30.320;2024-03-17T01:58:08;11.10;;;6.20;;
66145;SDS011;52948;60.040;30.320;2024-03-17T02:03:14;8.13;;;5.85;;
66145;SDS011;52948;60.040;30.320;2024-03-17T02:08:16;8.45;;;5.57;;
66145;SDS011;52948;60.040;30.320;2024-03-17T02:13:23;8.32;;;5.00;;
66145;SDS011;52948;60.040;30.320;2024-03-17T02:18:25;7.25;;;5.00;;
66145;SDS011;52948;60.040;30.320;2024-03-17T02:23:27;8.00;;;5.53;;
66145;SDS011;52948;60.040;30.320;2024-03-17T02:28:37;7.53;;;5.18;;
66145;SDS011;52948;60.040;30.320;2024-03-17T02:33:40;8.38;;;5.32;;
66145;SDS011;52948;60.040;30.320;2024-03-17T02:38:44;8.57;;;5.57;;
66145;SDS011;52948;60.040;30.320;2024-03-17T02:44:05;9.25;;;5.65;;
66145;SDS011;52948;60.040;30.320;2024-03-17T02:49:08;9.27;;;5.00;;
66145;SDS011;52948;60.040;30.320;2024-03-17T02:54:16;7.60;;;5.30;;
66145;SDS011;52948;60.040;30.320;2024-03-17T02:59:19;7.88;;;4.55;;
66145;SDS011;52948;60.040;30.320;2024-03-17T03:04:22;7.45;;;4.95;;
66145;SDS011;52948;60.040;30.320;2024-03-17T03:09:25;7.85;;;5.30;;
66145;SDS011;52948;60.040;30.320;2024-03-17T03:14:33;5.85;;;4.40;;
66145;SDS011;52948;60.040;30.320;2024-03-17T03:19:36;6.10;;;4.03;;
66145;SDS011;52948;60.040;30.320;2024-03-17T03:24:38;7.43;;;4.60;;
66145;SDS011;52948;60.040;30.320;2024-03-17T03:29:41;6.00;;;4.40;;
66145;SDS011;52948;60.040;30.320;2024-03-17T03:34:43;5.78;;;4.13;;
66145;SDS011;52948;60.040;30.320;2024-03-17T03:39:45;6.15;;;4.53;;
66145;SDS011;52948;60.040;30.320;2024-03-17T03:44:47;6.15;;;4.65;;
66145;SDS011;52948;60.040;30.320;2024-03-17T03:49:50;6.13;;;4.35;;
66145;SDS011;52948;60.040;30.320;2024-03-17T03:54:53;6.70;;;4.22;;
66145;SDS011;52948;60.040;30.320;2024-03-17T03:59:55;6.20;;;4.50;;
66145;SDS011;52948;60.040;30.320;2024-03-17T04:04:57;6.63;;;4.80;;
66145;SDS011;52948;60.040;30.320;2024-03-17T04:10:00;5.57;;;3.83;;
66145;SDS011;52948;60.040;30.320;2024-03-17T04:15:02;8.23;;;4.63;;
66145;SDS011;52948;60.040;30.320;2024-03-17T04:20:06;6.43;;;4.53;;
66145;SDS011;52948;60.040;30.320;2024-03-17T04:25:15;7.63;;;5.03;;
66145;SDS011;52948;60.040;30.320;2024-03-17T04:30:17;6.43;;;4.70;;
66145;SDS011;52948;60.040;30.320;2024-03-17T04:35:19;7.78;;;4.82;;
66145;SDS011;52948;60.040;30.320;2024-03-17T04:40:21;7.43;;;4.60;;
66145;SDS011;52948;60.040;30.320;2024-03-17T04:45:24;6.80;;;4.63;;
66145;SDS011;52948;60.040;30.320;2024-03-17T04:50:26;8.65;;;5.38;;
66145;SDS011;52948;60.040;30.320;2024-03-17T04:55:33;6.77;;;4.70;;
66145;SDS011;52948;60.040;30.320;2024-03-17T05:00:35;7.65;;;5.32;;
66145;SDS011;52948;60.040;30.320;2024-03-17T05:05:38;11.07;;;5.32;;
66145;SDS011;52948;60.040;30.320;2024-03-17T05:10:40;8.90;;;5.43;;
66145;SDS011;52948;60.040;30.320;2024-03-17T05:15:42;7.65;;;5.43;;
66145;SDS011;52948;60.040;30.320;2024-03-17T05:20:45;8.00;;;5.38;;
66145;SDS011;52948;60.040;30.320;2024-03-17T05:25:53;8.55;;;5.00;;
66145;SDS011;52948;60.040;30.320;2024-03-17T05:30:56;9.23;;;5.47;;
66145;SDS011;52948;60.040;30.320;2024-03-17T05:36:01;9.05;;;5.57;;
66145;SDS011;52948;60.040;30.320;2024-03-17T05:41:05;10.48;;;5.88;;
66145;SDS011;52948;60.040;30.320;2024-03-17T05:46:10;7.15;;;5.10;;
66145;SDS011;52948;60.040;30.320;2024-03-17T05:51:13;9.82;;;5.03;;
66145;SDS011;52948;60.040;30.320;2024-03-17T05:56:18;8.25;;;5.63;;
66145;SDS011;52948;60.040;30.320;2024-03-17T06:01:21;8.55;;;5.53;;
66145;SDS011;52948;60.040;30.320;2024-03-17T06:06:25;5.90;;;4.00;;
66145;SDS011;52948;60.040;30.320;2024-03-17T06:11:28;2.40;;;2.20;;
66145;SDS011;52948;60.040;30.320;2024-03-17T06:16:30;2.55;;;1.63;;
66145;SDS011;52948;60.040;30.320;2024-03-17T06:21:32;2.65;;;1.45;;
66145;SDS011;52948;60.040;30.320;2024-03-17T06:26:37;1.48;;;1.20;;
66145;SDS011;52948;60.040;30.320;2024-03-17T06:31:41;1.60;;;1.20;;
66145;SDS011;52948;60.040;30.320;2024-03-17T06:36:43;1.52;;;1.25;;
66145;SDS011;52948;60.040;30.320;2024-03-17T06:41:46;1.27;;;1.17;;
66145;SDS011;52948;60.040;30.320;2024-03-17T06:46:49;1.00;;;0.90;;
66145;SDS011;52948;60.040;30.320;2024-03-17T06:51:53;1.02;;;0.85;;
66145;SDS011;52948;60.040;30.320;2024-03-17T06:56:56;0.70;;;0.70;;
66145;SDS011;52948;60.040;30.320;2024-03-17T07:01:58;1.13;;;0.80;;
66145;SDS011;52948;60.040;30.320;2024-03-17T07:07:00;0.80;;;0.80;;
66145;SDS011;52948;60.040;30.320;2024-03-17T07:12:03;0.88;;;0.80;;
66145;SDS011;52948;60.040;30.320;2024-03-17T07:17:05;0.85;;;0.75;;
66145;SDS011;52948;60.040;30.320;2024-03-17T07:22:08;0.45;;;0.45;;
66145;SDS011;52948;60.040;30.320;2024-03-17T07:27:11;0.52;;;0.52;;
66145;SDS011;52948;60.040;30.320;2024-03-17T07:32:15;0.60;;;0.60;;
66145;SDS011;52948;60.040;30.320;2024-03-17T07:37:17;0.50;;;0.50;;
66145;SDS011;52948;60.040;30.320;2024-03-17T07:42:19;1.55;;;0.80;;
66145;SDS011;52948;60.040;30.320;2024-03-17T07:47:22;0.82;;;0.70;;
66145;SDS011;52948;60.040;30.320;2024-03-17T07:52:24;0.90;;;0.90;;
66145;SDS011;52948;60.040;30.320;2024-03-17T07:57:27;1.40;;;0.85;;
66145;SDS011;52948;60.040;30.320;2024-03-17T08:02:30;0.30;;;0.30;;
66145;SDS011;52948;60.040;30.320;2024-03-17T08:07:32;0.30;;;0.28;;
66145;SDS011;52948;60.040;30.320;2024-03-17T08:12:34;0.68;;;0.60;;
66145;SDS011;52948;60.040;30.320;2024-03-17T08:17:36;0.55;;;0.55;;
66145;SDS011;52948;60.040;30.320;2024-03-17T08:22:39;0.52;;;0.47;;
66145;SDS011;52948;60.040;30.320;2024-03-17T08:27:41;0.55;;;0.40;;
66145;SDS011;52948;60.040;30.320;2024-03-17T08:32:44;0.40;;;0.40;;
66145;SDS011;52948;60.040;30.320;2024-03-17T08:37:46;0.70;;;0.60;;
66145;SDS011;52948;60.040;30.320;2024-03-17T08:42:49;0.57;;;0.57;;
66145;SDS011;52948;60.040;30.320;2024-03-17T08:47:52;0.22;;;0.22;;
66145;SDS011;52948;60.040;30.320;2024-03-17T08:52:54;1.75;;;0.30;;
66145;SDS011;52948;60.040;30.320;2024-03-17T08:57:57;0.35;;;0.10;;
66145;SDS011;52948;60.040;30.320;2024-03-17T09:02:59;0.80;;;0.20;;
66145;SDS011;52948;60.040;30.320;2024-03-17T09:08:02;0.38;;;0.28;;
66145;SDS011;52948;60.040;30.320;2024-03-17T09:13:05;0.30;;;0.30;;
66145;SDS011;52948;60.040;30.320;2024-03-17T09:18:07;0.25;;;0.25;;
66145;SDS011;52948;60.040;30.320;2024-03-17T09:23:09;0.82;;;0.70;;
66145;SDS011;52948;60.040;30.320;2024-03-17T09:28:12;0.22;;;0.22;;
66145;SDS011;52948;60.040;30.320;2024-03-17T09:33:14;0.10;;;0.10;;
66145;SDS011;52948;60.040;30.320;2024-03-17T09:38:17;0.20;;;0.20;;
66145;SDS011;52948;60.040;30.320;2024-03-17T09:43:20;0.50;;;0.40;;
66145;SDS011;52948;60.040;30.320;2024-03-17T09:48:23;0.52;;;0.32;;
66145;SDS011;52948;60.040;30.320;2024-03-17T09:53:27;0.60;;;0.22;;
66145;SDS011;52948;60.040;30.320;2024-03-17T09:58:34;0.15;;;0.08;;
66145;SDS011;52948;60.040;30.320;2024-03-17T10:08:53;0.30;;;0.30;;
66145;SDS011;52948;60.040;30.320;2024-03-17T10:14:01;0.30;;;0.30;;
66145;SDS011;52948;60.040;30.320;2024-03-17T10:19:12;0.85;;;0.20;;
66145;SDS011;52948;60.040;30.320;2024-03-17T10:24:25;0.40;;;0.40;;
66145;SDS011;52948;60.040;30.320;2024-03-17T10:29:33;0.85;;;0.20;;
66145;SDS011;52948;60.040;30.320;2024-03-17T10:34:39;0.20;;;0.20;;
66145;SDS011;52948;60.040;30.320;2024-03-17T10:39:42;0.20;;;0.20;;
66145;SDS011;52948;60.040;30.320;2024-03-17T10:44:45;0.00;;;0.00;;
66145;SDS011;52948;60.040;30.320;2024-03-17T10:49:47;0.30;;;0.30;;
66145;SDS011;52948;60.040;30.320;2024-03-17T10:54:53;0.25;;;0.20;;
66145;SDS011;52948;60.040;30.320;2024-03-17T10:59:56;0.10;;;0.10;;
66145;SDS011;52948;60.040;30.320;2024-03-17T11:05:00;1.50;;;0.15;;
66145;SDS011;52948;60.040;30.320;2024-03-17T11:10:07;0.10;;;0.10;;
66145;SDS011;52948;60.040;30.320;2024-03-17T11:15:54;2.60;;;0.30;;
66145;SDS011;52948;60.040;30.320;2024-03-17T11:20:42;0.13;;;0.10;;
66145;SDS011;52948;60.040;30.320;2024-03-17T11:25:52;0.73;;;0.45;;
66145;SDS011;52948;60.040;30.320;2024-03-17T11:30:55;0.03;;;0.03;;
66145;SDS011;52948;60.040;30.320;2024-03-17T11:41:44;0.22;;;0.15;;
66145;SDS011;52948;60.040;30.320;2024-03-17T11:51:52;0.13;;;0.13;;
66145;SDS011;52948;60.040;30.320;2024-03-17T11:57:03;0.03;;;0.03;;
66145;SDS011;52948;60.040;30.320;2024-03-17T12:07:28;0.43;;;0.10;;
66145;SDS011;52948;60.040;30.320;2024-03-17T12:12:32;0.20;;;0.20;;
66145;SDS011;52948;60.040;30.320;2024-03-17T12:17:38;0.20;;;0.10;;
66145;SDS011;52948;60.040;30.320;2024-03-17T12:22:40;0.20;;;0.20;;
66145;SDS011;52948;60.040;30.320;2024-03-17T12:27:44;0.10;;;0.10;;
66145;SDS011;52948;60.040;30.320;2024-03-17T12:32:48;0.10;;;0.10;;
66145;SDS011;52948;60.040;30.320;2024-03-17T12:37:52;0.30;;;0.30;;
66145;SDS011;52948;60.040;30.320;2024-03-17T12:42:56;0.98;;;0.28;;
66145;SDS011;52948;60.040;30.320;2024-03-17T12:48:01;0.15;;;0.15;;
66145;SDS011;52948;60.040;30.320;2024-03-17T12:53:05;0.20;;;0.20;;
66145;SDS011;52948;60.040;30.320;2024-03-17T12:58:07;0.20;;;0.20;;
66145;SDS011;52948;60.040;30.320;2024-03-17T13:03:36;0.03;;;0.03;;
66145;SDS011;52948;60.040;30.320;2024-03-17T13:08:42;0.15;;;0.15;;
66145;SDS011;52948;60.040;30.320;2024-03-17T13:13:44;0.20;;;0.10;;
66145;SDS011;52948;60.040;30.320;2024-03-17T13:18:47;0.13;;;0.10;;
66145;SDS011;52948;60.040;30.320;2024-03-17T13:23:50;0.13;;;0.13;;
66145;SDS011;52948;60.040;30.320;2024-03-17T13:28:53;0.50;;;0.30;;
66145;SDS011;52948;60.040;30.320;2024-03-17T13:33:55;0.10;;;0.10;;
66145;SDS011;52948;60.040;30.320;2024-03-17T13:38:57;0.08;;;0.08;;
66145;SDS011;52948;60.040;30.320;2024-03-17T13:43:59;0.10;;;0.10;;
66145;SDS011;52948;60.040;30.320;2024-03-17T13:49:07;0.50;;;0.20;;
66145;SDS011;52948;60.040;30.320;2024-03-17T13:59:12;0.32;;;0.32;;
66145;SDS011;52948;60.040;30.320;2024-03-17T14:04:14;0.75;;;0.20;;
66145;SDS011;52948;60.040;30.320;2024-03-17T14:09:16;0.17;;;0.17;;
66145;SDS011;52948;60.040;30.320;2024-03-17T14:14:22;0.90;;;0.20;;
66145;SDS011;52948;60.040;30.320;2024-03-17T14:19:25;2.05;;;0.30;;
66145;SDS011;52948;60.040;30.320;2024-03-17T14:24:28;0.05;;;0.05;;
66145;SDS011;52948;60.040;30.320;2024-03-17T14:29:30;0.10;;;0.10;;
66145;SDS011;52948;60.040;30.320;2024-03-17T14:34:32;0.38;;;0.22;;
66145;SDS011;52948;60.040;30.320;2024-03-17T14:39:38;0.40;;;0.32;;
66145;SDS011;52948;60.040;30.320;2024-03-17T14:44:41;0.20;;;0.20;;
66145;SDS011;52948;60.040;30.320;2024-03-17T14:49:43;1.50;;;0.40;;
66145;SDS011;52948;60.040;30.320;2024-03-17T14:54:47;0.20;;;0.20;;
66145;SDS011;52948;60.040;30.320;2024-03-17T14:59:49;0.45;;;0.30;;
66145;SDS011;52948;60.040;30.320;2024-03-17T15:04:52;0.00;;;0.00;;
66145;SDS011;52948;60.040;30.320;2024-03-17T15:09:54;0.20;;;0.15;;
66145;SDS011;52948;60.040;30.320;2024-03-17T15:14:56;0.17;;;0.17;;
66145;SDS011;52948;60.040;30.320;2024-03-17T15:19:58;0.57;;;0.25;;
66145;SDS011;52948;60.040;30.320;2024-03-17T15:25:00;0.10;;;0.10;;
66145;SDS011;52948;60.040;30.320;2024-03-17T15:30:03;0.40;;;0.20;;
66145;SDS011;52948;60.040;30.320;2024-03-17T15:35:06;0.50;;;0.20;;
66145;SDS011;52948;60.040;30.320;2024-03-17T15:40:09;0.13;;;0.10;;
66145;SDS011;52948;60.040;30.320;2024-03-17T15:45:20;0.20;;;0.20;;
66145;SDS011;52948;60.040;30.320;2024-03-17T15:50:25;0.85;;;0.32;;
66145;SDS011;52948;60.040;30.320;2024-03-17T15:55:27;0.57;;;0.40;;
66145;SDS011;52948;60.040;30.320;2024-03-17T16:00:29;0.20;;;0.10;;
66145;SDS011;52948;60.040;30.320;2024-03-17T16:05:31;0.30;;;0.30;;
66145;SDS011;52948;60.040;30.320;2024-03-17T16:10:34;0.85;;;0.35;;
66145;SDS011;52948;60.040;30.320;2024-03-17T16:15:36;0.63;;;0.55;;
66145;SDS011;52948;60.040;30.320;2024-03-17T16:25:50;0.98;;;0.50;;
66145;SDS011;52948;60.040;30.320;2024-03-17T16:30:56;0.30;;;0.30;;
66145;SDS011;52948;60.040;30.320;2024-03-17T16:35:59;0.22;;;0.20;;
66145;SDS011;52948;60.040;30.320;2024-03-17T16:41:01;0.30;;;0.30;;
66145;SDS011;52948;60.040;30.320;2024-03-17T16:51:30;0.57;;;0.17;;
66145;SDS011;52948;60.040;30.320;2024-03-17T16:56:32;0.47;;;0.47;;
66145;SDS011;52948;60.040;30.320;2024-03-17T17:01:35;0.10;;;0.10;;
66145;SDS011;52948;60.040;30.320;2024-03-17T17:06:40;0.20;;;0.20;;
66145;SDS011;52948;60.040;30.320;2024-03-17T17:11:43;0.10;;;0.10;;
66145;SDS011;52948;60.040;30.320;2024-03-17T17:16:51;0.20;;;0.20;;
66145;SDS011;52948;60.040;30.320;2024-03-17T17:21:54;0.30;;;0.30;;
66145;SDS011;52948;60.040;30.320;2024-03-17T17:27:03;1.15;;;0.50;;
66145;SDS011;52948;60.040;30.320;2024-03-17T17:32:07;0.60;;;0.50;;
66145;SDS011;52948;60.040;30.320;2024-03-17T17:37:10;0.50;;;0.50;;
66145;SDS011;52948;60.040;30.320;2024-03-17T17:42:14;0.63;;;0.40;;
66145;SDS011;52948;60.040;30.320;2024-03-17T17:47:19;0.40;;;0.35;;
66145;SDS011;52948;60.040;30.320;2024-03-17T17:52:21;1.42;;;0.50;;
66145;SDS011;52948;60.040;30.320;2024-03-17T17:57:24;1.70;;;0.55;;
66145;SDS011;52948;60.040;30.320;2024-03-17T18:02:28;0.85;;;0.70;;
66145;SDS011;52948;60.040;30.320;2024-03-17T18:07:32;0.85;;;0.60;;
66145;SDS011;52948;60.040;30.320;2024-03-17T18:12:34;0.95;;;0.43;;
66145;SDS011;52948;60.040;30.320;2024-03-17T18:17:37;0.85;;;0.50;;
66145;SDS011;52948;60.040;30.320;2024-03-17T18:22:40;0.77;;;0.60;;
66145;SDS011;52948;60.040;30.320;2024-03-17T18:27:42;1.10;;;0.50;;
66145;SDS011;52948;60.040;30.320;2024-03-17T18:32:45;1.27;;;0.70;;
66145;SDS011;52948;60.040;30.320;2024-03-17T18:37:49;0.52;;;0.40;;
66145;SDS011;52948;60.040;30.320;2024-03-17T18:42:52;1.92;;;0.63;;
66145;SDS011;52948;60.040;30.320;2024-03-17T18:47:55;0.50;;;0.30;;
66145;SDS011;52948;60.040;30.320;2024-03-17T18:52:57;1.00;;;0.50;;
66145;SDS011;52948;60.040;30.320;2024-03-17T18:58:01;0.88;;;0.40;;
66145;SDS011;52948;60.040;30.320;2024-03-17T19:03:04;1.30;;;0.40;;
66145;SDS011;52948;60.040;30.320;2024-03-17T19:08:06;1.75;;;0.73;;
66145;SDS011;52948;60.040;30.320;2024-03-17T19:13:12;0.65;;;0.50;;
66145;SDS011;52948;60.040;30.320;2024-03-17T19:18:15;1.55;;;0.30;;
66145;SDS011;52948;60.040;30.320;2024-03-17T19:23:18;0.45;;;0.43;;
66145;SDS011;52948;60.040;30.320;2024-03-17T19:28:21;1.85;;;0.57;;
66145;SDS011;52948;60.040;30.320;2024-03-17T19:33:26;1.95;;;0.40;;
66145;SDS011;52948;60.040;30.320;2024-03-17T19:38:29;2.30;;;0.43;;
66145;SDS011;52948;60.040;30.320;2024-03-17T19:43:31;1.10;;;0.40;;
66145;SDS011;52948;60.040;30.320;2024-03-17T19:48:36;1.52;;;0.50;;
66145;SDS011;52948;60.040;30.320;2024-03-17T19:53:39;0.90;;;0.40;;
66145;SDS011;52948;60.040;30.320;2024-03-17T19:58:42;0.85;;;0.50;;
66145;SDS011;52948;60.040;30.320;2024-03-17T20:03:45;0.60;;;0.43;;
66145;SDS011;52948;60.040;30.320;2024-03-17T20:08:48;2.08;;;0.50;;
66145;SDS011;52948;60.040;30.320;2024-03-17T20:13:51;0.50;;;0.50;;
66145;SDS011;52948;60.040;30.320;2024-03-17T20:18:54;1.05;;;0.57;;
66145;SDS011;52948;60.040;30.320;2024-03-17T20:23:57;0.98;;;0.40;;
66145;SDS011;52948;60.040;30.320;2024-03-17T20:29:00;1.30;;;0.30;;
66145;SDS011;52948;60.040;30.320;2024-03-17T20:34:04;0.88;;;0.35;;
66145;SDS011;52948;60.040;30.320;2024-03-17T20:39:06;0.38;;;0.28;;
66145;SDS011;52948;60.040;30.320;2024-03-17T20:44:11;0.60;;;0.40;;
66145;SDS011;52948;60.040;30.320;2024-03-17T20:49:13;0.30;;;0.30;;
66145;SDS011;52948;60.040;30.320;2024-03-17T20:54:16;1.35;;;0.40;;
66145;SDS011;52948;60.040;30.320;2024-03-17T20:59:18;0.40;;;0.40;;
66145;SDS011;52948;60.040;30.320;2024-03-17T21:04:20;0.82;;;0.50;;
66145;SDS011;52948;60.040;30.320;2024-03-17T21:09:23;0.93;;;0.20;;
66145;SDS011;52948;60.040;30.320;2024-03-17T21:14:25;1.73;;;0.55;;
66145;SDS011;52948;60.040;30.320;2024-03-17T21:19:27;1.23;;;0.35;;
66145;SDS011;52948;60.040;30.320;2024-03-17T21:24:31;2.20;;;0.60;;
66145;SDS011;52948;60.040;30.320;2024-03-17T21:29:35;0.65;;;0.40;;
66145;SDS011;52948;60.040;30.320;2024-03-17T21:34:37;0.30;;;0.30;;
66145;SDS011;52948;60.040;30.320;2024-03-17T21:39:40;1.83;;;0.50;;
66145;SDS011;52948;60.040;30.320;2024-03-17T21:44:43;0.93;;;0.57;;
66145;SDS011;52948;60.040;30.320;2024-03-17T21:49:45;0.98;;;0.47;;
66145;SDS011;52948;60.040;30.320;2024-03-17T21:54:50;0.95;;;0.40;;
66145;SDS011;52948;60.040;30.320;2024-03-17T21:59:53;0.63;;;0.30;;
66145;SDS011;52948;60.040;30.320;2024-03-17T22:04:55;1.88;;;0.40;;
66145;SDS011;52948;60.040;30.320;2024-03-17T22:09:57;4.30;;;0.70;;
66145;SDS011;52948;60.040;30.320;2024-03-17T22:15:00;1.02;;;0.47;;
66145;SDS011;52948;60.040;30.320;2024-03-17T22:20:05;0.85;;;0.45;;
66145;SDS011;52948;60.040;30.320;2024-03-17T22:25:10;1.85;;;0.63;;
66145;SDS011;52948;60.040;30.320;2024-03-17T22:30:12;1.38;;;0.30;;
66145;SDS011;52948;60.040;30.320;2024-03-17T22:35:14;0.55;;;0.25;;
66145;SDS011;52948;60.040;30.320;2024-03-17T22:40:17;0.15;;;0.15;;
66145;SDS011;52948;60.040;30.320;2024-03-17T22:45:19;0.77;;;0.40;;
66145;SDS011;52948;60.040;30.320;2024-03-17T22:50:22;0.73;;;0.40;;
66145;SDS011;52948;60.040;30.320;2024-03-17T22:55:24;1.45;;;0.40;;
66145;SDS011;52948;60.040;30.320;2024-03-17T23:00:27;1.85;;;0.30;;
66145;SDS011;52948;60.040;30.320;2024-03-17T23:05:43;1.80;;;0.30;;
66145;SDS011;52948;60.040;30.320;2024-03-17T23:10:45;1.83;;;0.60;;
66145;SDS011;52948;60.040;30.320;2024-03-17T23:15:48;1.25;;;0.50;;
66145;SDS011;52948;60.040;30.320;2024-03-17T23:20:50;3.60;;;0.43;;
66145;SDS011;52948;60.040;30.320;2024-03-17T23:25:53;1.17;;;0.35;;
66145;SDS011;52948;60.040;30.320;2024-03-17T23:30:55;1.38;;;0.65;;
66145;SDS011;52948;60.040;30.320;2024-03-17T23:35:58;0.40;;;0.25;;
66145;SDS011;52948;60.040;30.320;2024-03-17T23:41:00;0.55;;;0.08;;
66145;SDS011;52948;60.040;30.320;2024-03-17T23:46:02;3.25;;;0.55;;
66145;SDS011;52948;60.040;30.320;2024-03-17T23:51:10;1.08;;;0.15;;
66145;SDS011;52948;60.040;30.320;2024-03-17T23:56:13;0.35;;;0.35;;
